Aérodrome :
LOGIN :

S'inscrire | Disclaimer

   EN    FR    IT 

 










Légende :    VFR   VFR Marginal   IFR   IFR Intensif   IFR Très Intensif
Visi : 
Plafond : 
>= 8 km
>= 3000ft
5 à 8 km
1000 à 3000 ft
1500m à 5 km
500 à 1000 ft
800 à 1500m
200 à 500 ft
< 800m
< 200 ft
Symboles :   Orages  Brouillard  Fortes neiges  Fortes précipitations  Vent > 20 kt
SIGMETs :   Divers  Orages  Givrage  Turbulence  Onde Orograph.  Cendres Volcan.







- Altitude de l'aérodrome : 313 ft
- Code IATA : LEH
- Voir les cartes d'approche


LFOH - Le Havre Octeville

DERNIER METAR :
  • 130430Z AUTO 20013KT 9999 FEW018 SCT076 11/08 Q1020

METARs EXPIRÉS :
  • 130400Z AUTO 20013KT CAVOK 11/08 Q1019
  • 130330Z AUTO 20015KT CAVOK 11/08 Q1019
  • 130300Z AUTO 20013KT 9999 FEW014 11/08 Q1019
  • 130230Z AUTO 19011KT 9999 FEW020 11/09 Q1019
  • 130200Z AUTO 19010KT 160V230 CAVOK 11/09 Q1018
  • 130130Z AUTO 19011KT CAVOK 11/09 Q1018

TAF TAF LFOH
Valide du 12 à 12h jusqu'au 13 à 12h UTC


121100Z 1212/1312 19012KT 9999 SCT015 SCT030
TEMPO 1212/1218 SHRA BKN013 SCT020TCU
TEMPO 1303/1308 22015G25KT 3000 SHRA BKN007 BKN020CB
ATIS : +33 2 35 54 64 93
Pas de NOTAMs connus pour ce terrain.



MET'MAP, la Météo Aéronautique d'un coup d'oeil ! - Copyright ORBIFLY Décembre 2007 - Disclaimer

ORBIFLY MET'MAP TEAM :

Programmation & Développement : Alexandra Zaïnal
Conception & Développement : Baudouin d'Aumeries
Co-Programmation & Développement : Marc-Olivier Méhu
Soutien technique & logistique : Manuel Goepfert

Contact : metmap@orbifly.com




SOURCES & CREDITS :

   NOAA